sensor_id;sensor_type;location;lat;lon;timestamp;P1;durP1;ratioP1;P2;durP2;ratioP2
17648;SDS011;8943;51.110;-4.158;2023-11-21T00:19:19;9.83;;;1.80;;
17648;SDS011;8943;51.110;-4.158;2023-11-21T00:21:48;15.57;;;2.23;;
17648;SDS011;8943;51.110;-4.158;2023-11-21T00:27:46;14.53;;;2.10;;
17648;SDS011;8943;51.110;-4.158;2023-11-21T00:30:15;8.20;;;1.60;;
17648;SDS011;8943;51.110;-4.158;2023-11-21T00:32:56;10.43;;;2.17;;
17648;SDS011;8943;51.110;-4.158;2023-11-21T00:44:12;7.40;;;1.60;;
17648;SDS011;8943;51.110;-4.158;2023-11-21T00:49:22;8.77;;;2.27;;
17648;SDS011;8943;51.110;-4.158;2023-11-21T00:51:53;9.20;;;1.50;;
17648;SDS011;8943;51.110;-4.158;2023-11-21T00:58:22;8.33;;;1.07;;
17648;SDS011;8943;51.110;-4.158;2023-11-21T01:24:33;6.87;;;2.00;;
17648;SDS011;8943;51.110;-4.158;2023-11-21T01:31:32;11.33;;;2.00;;
17648;SDS011;8943;51.110;-4.158;2023-11-21T01:34:01;18.60;;;2.70;;
17648;SDS011;8943;51.110;-4.158;2023-11-21T01:36:30;11.17;;;2.27;;
17648;SDS011;8943;51.110;-4.158;2023-11-21T02:22:22;9.10;;;1.87;;
17648;SDS011;8943;51.110;-4.158;2023-11-21T02:25:04;9.07;;;1.90;;
17648;SDS011;8943;51.110;-4.158;2023-11-21T02:43:29;7.20;;;1.20;;
17648;SDS011;8943;51.110;-4.158;2023-11-21T03:02:57;6.43;;;1.20;;
17648;SDS011;8943;51.110;-4.158;2023-11-21T03:36:04;6.13;;;1.00;;
17648;SDS011;8943;51.110;-4.158;2023-11-21T03:39:01;4.77;;;1.43;;
17648;SDS011;8943;51.110;-4.158;2023-11-21T03:42:01;7.30;;;1.40;;
17648;SDS011;8943;51.110;-4.158;2023-11-21T03:44:30;4.37;;;1.30;;
17648;SDS011;8943;51.110;-4.158;2023-11-21T03:47:06;7.97;;;1.57;;
17648;SDS011;8943;51.110;-4.158;2023-11-21T03:50:11;8.70;;;1.43;;
17648;SDS011;8943;51.110;-4.158;2023-11-21T03:55:57;3.77;;;1.10;;
17648;SDS011;8943;51.110;-4.158;2023-11-21T03:58:39;5.83;;;1.03;;
17648;SDS011;8943;51.110;-4.158;2023-11-21T04:08:13;8.33;;;1.33;;
17648;SDS011;8943;51.110;-4.158;2023-11-21T04:10:57;9.27;;;1.50;;
17648;SDS011;8943;51.110;-4.158;2023-11-21T04:16:31;9.00;;;1.20;;
17648;SDS011;8943;51.110;-4.158;2023-11-21T04:19:01;5.47;;;0.73;;
17648;SDS011;8943;51.110;-4.158;2023-11-21T04:21:36;6.00;;;1.20;;
17648;SDS011;8943;51.110;-4.158;2023-11-21T04:24:11;4.60;;;1.00;;
17648;SDS011;8943;51.110;-4.158;2023-11-21T04:26:41;3.93;;;0.97;;
17648;SDS011;8943;51.110;-4.158;2023-11-21T04:29:09;5.13;;;1.17;;
17648;SDS011;8943;51.110;-4.158;2023-11-21T04:31:38;8.20;;;1.27;;
17648;SDS011;8943;51.110;-4.158;2023-11-21T04:34:08;5.83;;;1.50;;
17648;SDS011;8943;51.110;-4.158;2023-11-21T04:36:36;7.00;;;1.50;;
17648;SDS011;8943;51.110;-4.158;2023-11-21T04:39:08;9.20;;;1.53;;
17648;SDS011;8943;51.110;-4.158;2023-11-21T04:41:36;5.97;;;1.13;;
17648;SDS011;8943;51.110;-4.158;2023-11-21T04:44:07;4.90;;;1.20;;
17648;SDS011;8943;51.110;-4.158;2023-11-21T04:46:35;8.53;;;1.53;;
17648;SDS011;8943;51.110;-4.158;2023-11-21T04:49:04;5.60;;;1.00;;
17648;SDS011;8943;51.110;-4.158;2023-11-21T04:51:32;5.70;;;1.07;;
17648;SDS011;8943;51.110;-4.158;2023-11-21T04:58:21;7.77;;;1.00;;
17648;SDS011;8943;51.110;-4.158;2023-11-21T05:00:50;7.30;;;1.00;;
17648;SDS011;8943;51.110;-4.158;2023-11-21T05:03:19;2.50;;;0.80;;
17648;SDS011;8943;51.110;-4.158;2023-11-21T05:05:48;5.37;;;0.83;;
17648;SDS011;8943;51.110;-4.158;2023-11-21T05:08:20;3.93;;;1.63;;
17648;SDS011;8943;51.110;-4.158;2023-11-21T05:13:36;5.60;;;1.17;;
17648;SDS011;8943;51.110;-4.158;2023-11-21T05:16:07;2.70;;;0.80;;
17648;SDS011;8943;51.110;-4.158;2023-11-21T05:18:37;7.10;;;1.23;;
17648;SDS011;8943;51.110;-4.158;2023-11-21T05:21:19;5.57;;;0.97;;
17648;SDS011;8943;51.110;-4.158;2023-11-21T05:23:47;4.43;;;1.00;;
17648;SDS011;8943;51.110;-4.158;2023-11-21T05:26:16;6.90;;;1.00;;
17648;SDS011;8943;51.110;-4.158;2023-11-21T05:31:40;3.63;;;0.80;;
17648;SDS011;8943;51.110;-4.158;2023-11-21T05:39:40;5.43;;;1.07;;
17648;SDS011;8943;51.110;-4.158;2023-11-21T05:42:11;4.23;;;1.53;;
17648;SDS011;8943;51.110;-4.158;2023-11-21T06:03:15;7.43;;;0.97;;
17648;SDS011;8943;51.110;-4.158;2023-11-21T06:09:07;6.43;;;1.07;;
17648;SDS011;8943;51.110;-4.158;2023-11-21T06:12:37;3.97;;;1.10;;
17648;SDS011;8943;51.110;-4.158;2023-11-21T06:15:10;3.47;;;1.10;;
17648;SDS011;8943;51.110;-4.158;2023-11-21T06:43:18;2.87;;;1.10;;
17648;SDS011;8943;51.110;-4.158;2023-11-21T06:46:27;10.40;;;1.17;;
17648;SDS011;8943;51.110;-4.158;2023-11-21T06:49:13;6.60;;;1.10;;
17648;SDS011;8943;51.110;-4.158;2023-11-21T06:51:43;2.23;;;0.70;;
17648;SDS011;8943;51.110;-4.158;2023-11-21T06:59:55;5.43;;;0.90;;
17648;SDS011;8943;51.110;-4.158;2023-11-21T07:02:25;5.10;;;0.87;;
17648;SDS011;8943;51.110;-4.158;2023-11-21T07:24:39;5.13;;;1.33;;
17648;SDS011;8943;51.110;-4.158;2023-11-21T07:27:36;4.63;;;0.90;;
17648;SDS011;8943;51.110;-4.158;2023-11-21T07:33:03;1.43;;;0.43;;
17648;SDS011;8943;51.110;-4.158;2023-11-21T07:35:43;7.70;;;0.83;;
17648;SDS011;8943;51.110;-4.158;2023-11-21T07:38:43;2.80;;;0.80;;
17648;SDS011;8943;51.110;-4.158;2023-11-21T07:45:30;2.07;;;0.60;;
17648;SDS011;8943;51.110;-4.158;2023-11-21T07:48:03;4.33;;;0.97;;
17648;SDS011;8943;51.110;-4.158;2023-11-21T07:50:53;1.40;;;0.40;;
17648;SDS011;8943;51.110;-4.158;2023-11-21T07:53:23;4.17;;;0.97;;
17648;SDS011;8943;51.110;-4.158;2023-11-21T07:55:55;3.87;;;0.90;;
17648;SDS011;8943;51.110;-4.158;2023-11-21T07:58:48;11.60;;;1.10;;
17648;SDS011;8943;51.110;-4.158;2023-11-21T08:01:21;3.87;;;0.67;;
17648;SDS011;8943;51.110;-4.158;2023-11-21T08:03:49;5.03;;;1.00;;
17648;SDS011;8943;51.110;-4.158;2023-11-21T08:06:23;3.63;;;0.73;;
17648;SDS011;8943;51.110;-4.158;2023-11-21T08:08:52;3.90;;;0.97;;
17648;SDS011;8943;51.110;-4.158;2023-11-21T08:11:20;7.60;;;1.50;;
17648;SDS011;8943;51.110;-4.158;2023-11-21T08:13:50;3.57;;;0.70;;
17648;SDS011;8943;51.110;-4.158;2023-11-21T08:16:21;1.70;;;0.60;;
17648;SDS011;8943;51.110;-4.158;2023-11-21T08:19:05;1.73;;;0.90;;
17648;SDS011;8943;51.110;-4.158;2023-11-21T08:21:35;4.53;;;0.87;;
17648;SDS011;8943;51.110;-4.158;2023-11-21T08:24:47;2.17;;;0.50;;
17648;SDS011;8943;51.110;-4.158;2023-11-21T08:27:15;1.70;;;0.63;;
17648;SDS011;8943;51.110;-4.158;2023-11-21T08:29:56;4.33;;;0.70;;
17648;SDS011;8943;51.110;-4.158;2023-11-21T08:32:28;7.60;;;0.73;;
17648;SDS011;8943;51.110;-4.158;2023-11-21T08:35:17;2.90;;;0.70;;
17648;SDS011;8943;51.110;-4.158;2023-11-21T08:37:48;2.00;;;0.50;;
17648;SDS011;8943;51.110;-4.158;2023-11-21T08:40:19;1.47;;;0.40;;
17648;SDS011;8943;51.110;-4.158;2023-11-21T08:42:48;3.00;;;0.67;;
17648;SDS011;8943;51.110;-4.158;2023-11-21T08:45:18;2.87;;;0.50;;
17648;SDS011;8943;51.110;-4.158;2023-11-21T08:47:49;0.53;;;0.30;;
17648;SDS011;8943;51.110;-4.158;2023-11-21T08:50:21;4.70;;;0.70;;
17648;SDS011;8943;51.110;-4.158;2023-11-21T08:55:50;2.50;;;0.53;;
17648;SDS011;8943;51.110;-4.158;2023-11-21T08:58:21;2.63;;;0.90;;
17648;SDS011;8943;51.110;-4.158;2023-11-21T09:00:51;1.50;;;0.40;;
17648;SDS011;8943;51.110;-4.158;2023-11-21T09:03:22;2.90;;;1.03;;
17648;SDS011;8943;51.110;-4.158;2023-11-21T09:05:52;0.97;;;0.40;;
17648;SDS011;8943;51.110;-4.158;2023-11-21T09:08:23;2.73;;;0.60;;
17648;SDS011;8943;51.110;-4.158;2023-11-21T09:10:59;2.77;;;0.63;;
17648;SDS011;8943;51.110;-4.158;2023-11-21T09:13:28;1.27;;;0.33;;
17648;SDS011;8943;51.110;-4.158;2023-11-21T09:15:57;1.73;;;0.70;;
17648;SDS011;8943;51.110;-4.158;2023-11-21T09:18:32;0.93;;;0.30;;
17648;SDS011;8943;51.110;-4.158;2023-11-21T09:21:02;0.27;;;0.20;;
17648;SDS011;8943;51.110;-4.158;2023-11-21T09:23:31;4.60;;;0.40;;
17648;SDS011;8943;51.110;-4.158;2023-11-21T09:26:00;0.83;;;0.30;;
17648;SDS011;8943;51.110;-4.158;2023-11-21T09:28:30;0.50;;;0.33;;
17648;SDS011;8943;51.110;-4.158;2023-11-21T09:31:01;1.60;;;0.50;;
17648;SDS011;8943;51.110;-4.158;2023-11-21T09:33:44;1.23;;;0.50;;
17648;SDS011;8943;51.110;-4.158;2023-11-21T09:36:14;1.77;;;0.40;;
17648;SDS011;8943;51.110;-4.158;2023-11-21T09:38:43;0.30;;;0.30;;
17648;SDS011;8943;51.110;-4.158;2023-11-21T09:41:19;1.20;;;0.27;;
17648;SDS011;8943;51.110;-4.158;2023-11-21T09:44:07;2.00;;;0.30;;
17648;SDS011;8943;51.110;-4.158;2023-11-21T09:46:40;1.87;;;0.53;;
17648;SDS011;8943;51.110;-4.158;2023-11-21T09:49:13;1.57;;;0.50;;
17648;SDS011;8943;51.110;-4.158;2023-11-21T09:51:45;1.33;;;0.43;;
17648;SDS011;8943;51.110;-4.158;2023-11-21T09:54:16;2.40;;;0.37;;
17648;SDS011;8943;51.110;-4.158;2023-11-21T09:56:46;1.53;;;0.40;;
17648;SDS011;8943;51.110;-4.158;2023-11-21T09:59:15;1.87;;;0.30;;
17648;SDS011;8943;51.110;-4.158;2023-11-21T10:01:45;0.93;;;0.47;;
17648;SDS011;8943;51.110;-4.158;2023-11-21T10:04:16;0.70;;;0.40;;
17648;SDS011;8943;51.110;-4.158;2023-11-21T10:06:47;1.73;;;0.40;;
17648;SDS011;8943;51.110;-4.158;2023-11-21T10:09:19;2.77;;;0.30;;
17648;SDS011;8943;51.110;-4.158;2023-11-21T10:11:50;1.50;;;0.50;;
17648;SDS011;8943;51.110;-4.158;2023-11-21T10:14:21;3.17;;;0.77;;
17648;SDS011;8943;51.110;-4.158;2023-11-21T10:16:58;1.03;;;0.40;;
17648;SDS011;8943;51.110;-4.158;2023-11-21T10:19:29;2.67;;;0.60;;
17648;SDS011;8943;51.110;-4.158;2023-11-21T10:21:59;2.47;;;0.60;;
17648;SDS011;8943;51.110;-4.158;2023-11-21T10:24:34;1.23;;;0.30;;
17648;SDS011;8943;51.110;-4.158;2023-11-21T10:27:19;0.40;;;0.30;;
17648;SDS011;8943;51.110;-4.158;2023-11-21T10:29:51;1.27;;;0.37;;
17648;SDS011;8943;51.110;-4.158;2023-11-21T10:32:22;10.23;;;1.37;;
17648;SDS011;8943;51.110;-4.158;2023-11-21T10:35:01;0.83;;;0.40;;
17648;SDS011;8943;51.110;-4.158;2023-11-21T10:37:43;1.90;;;0.40;;
17648;SDS011;8943;51.110;-4.158;2023-11-21T10:40:15;1.17;;;0.30;;
17648;SDS011;8943;51.110;-4.158;2023-11-21T10:42:43;2.03;;;0.47;;
17648;SDS011;8943;51.110;-4.158;2023-11-21T10:45:12;2.30;;;0.57;;
17648;SDS011;8943;51.110;-4.158;2023-11-21T10:47:41;8.63;;;1.07;;
17648;SDS011;8943;51.110;-4.158;2023-11-21T10:50:21;1.80;;;0.30;;
17648;SDS011;8943;51.110;-4.158;2023-11-21T10:52:52;0.93;;;0.20;;
17648;SDS011;8943;51.110;-4.158;2023-11-21T10:55:20;1.40;;;0.27;;
17648;SDS011;8943;51.110;-4.158;2023-11-21T10:57:52;4.50;;;0.60;;
17648;SDS011;8943;51.110;-4.158;2023-11-21T11:00:22;2.60;;;0.70;;
17648;SDS011;8943;51.110;-4.158;2023-11-21T11:02:53;1.30;;;0.57;;
17648;SDS011;8943;51.110;-4.158;2023-11-21T11:05:25;1.87;;;0.23;;
17648;SDS011;8943;51.110;-4.158;2023-11-21T11:07:58;1.17;;;0.37;;
17648;SDS011;8943;51.110;-4.158;2023-11-21T11:10:30;1.40;;;0.27;;
17648;SDS011;8943;51.110;-4.158;2023-11-21T11:13:01;1.80;;;0.50;;
17648;SDS011;8943;51.110;-4.158;2023-11-21T11:15:30;2.53;;;0.70;;
17648;SDS011;8943;51.110;-4.158;2023-11-21T11:18:12;0.93;;;0.30;;
17648;SDS011;8943;51.110;-4.158;2023-11-21T11:20:55;1.23;;;0.30;;
17648;SDS011;8943;51.110;-4.158;2023-11-21T11:23:49;0.87;;;0.30;;
17648;SDS011;8943;51.110;-4.158;2023-11-21T11:26:32;1.20;;;0.40;;
17648;SDS011;8943;51.110;-4.158;2023-11-21T11:29:12;1.67;;;0.30;;
17648;SDS011;8943;51.110;-4.158;2023-11-21T11:31:55;0.40;;;0.10;;
17648;SDS011;8943;51.110;-4.158;2023-11-21T11:34:39;2.10;;;0.40;;
17648;SDS011;8943;51.110;-4.158;2023-11-21T11:37:19;0.90;;;0.30;;
17648;SDS011;8943;51.110;-4.158;2023-11-21T11:39:49;2.47;;;0.63;;
17648;SDS011;8943;51.110;-4.158;2023-11-21T11:42:21;0.30;;;0.20;;
17648;SDS011;8943;51.110;-4.158;2023-11-21T11:47:27;1.63;;;0.57;;
17648;SDS011;8943;51.110;-4.158;2023-11-21T11:50:03;1.47;;;0.40;;
17648;SDS011;8943;51.110;-4.158;2023-11-21T11:52:41;2.63;;;0.73;;
17648;SDS011;8943;51.110;-4.158;2023-11-21T11:55:11;1.40;;;0.40;;
17648;SDS011;8943;51.110;-4.158;2023-11-21T12:00:33;0.97;;;0.40;;
17648;SDS011;8943;51.110;-4.158;2023-11-21T12:03:41;2.63;;;0.40;;
17648;SDS011;8943;51.110;-4.158;2023-11-21T12:06:33;2.23;;;0.47;;
17648;SDS011;8943;51.110;-4.158;2023-11-21T12:09:04;0.93;;;0.50;;
17648;SDS011;8943;51.110;-4.158;2023-11-21T12:11:33;0.83;;;0.37;;
17648;SDS011;8943;51.110;-4.158;2023-11-21T12:14:02;2.37;;;0.30;;
17648;SDS011;8943;51.110;-4.158;2023-11-21T12:16:35;0.80;;;0.40;;
17648;SDS011;8943;51.110;-4.158;2023-11-21T12:19:04;0.30;;;0.20;;
17648;SDS011;8943;51.110;-4.158;2023-11-21T12:21:33;1.73;;;0.30;;
17648;SDS011;8943;51.110;-4.158;2023-11-21T12:24:09;2.13;;;0.57;;
17648;SDS011;8943;51.110;-4.158;2023-11-21T12:26:53;0.97;;;0.47;;
17648;SDS011;8943;51.110;-4.158;2023-11-21T12:29:21;0.53;;;0.23;;
17648;SDS011;8943;51.110;-4.158;2023-11-21T12:31:50;0.93;;;0.37;;
17648;SDS011;8943;51.110;-4.158;2023-11-21T12:34:28;0.83;;;0.30;;
17648;SDS011;8943;51.110;-4.158;2023-11-21T12:37:27;1.47;;;0.30;;
17648;SDS011;8943;51.110;-4.158;2023-11-21T12:39:57;4.13;;;0.57;;
17648;SDS011;8943;51.110;-4.158;2023-11-21T12:42:26;1.70;;;0.30;;
17648;SDS011;8943;51.110;-4.158;2023-11-21T12:47:35;1.20;;;0.60;;
17648;SDS011;8943;51.110;-4.158;2023-11-21T12:50:11;1.77;;;0.70;;
17648;SDS011;8943;51.110;-4.158;2023-11-21T12:52:41;1.60;;;0.80;;
17648;SDS011;8943;51.110;-4.158;2023-11-21T12:55:22;2.80;;;0.90;;
17648;SDS011;8943;51.110;-4.158;2023-11-21T12:57:55;6.77;;;3.60;;
17648;SDS011;8943;51.110;-4.158;2023-11-21T13:00:33;7.80;;;5.50;;
17648;SDS011;8943;51.110;-4.158;2023-11-21T13:03:06;1.30;;;0.93;;
17648;SDS011;8943;51.110;-4.158;2023-11-21T13:05:41;4.43;;;0.90;;
17648;SDS011;8943;51.110;-4.158;2023-11-21T13:08:25;0.97;;;0.43;;
17648;SDS011;8943;51.110;-4.158;2023-11-21T13:10:58;3.00;;;0.60;;
17648;SDS011;8943;51.110;-4.158;2023-11-21T13:13:29;3.40;;;0.60;;
17648;SDS011;8943;51.110;-4.158;2023-11-21T13:16:04;1.77;;;0.40;;
17648;SDS011;8943;51.110;-4.158;2023-11-21T13:18:37;1.57;;;0.47;;
17648;SDS011;8943;51.110;-4.158;2023-11-21T13:21:08;3.17;;;1.80;;
17648;SDS011;8943;51.110;-4.158;2023-11-21T13:23:40;4.07;;;1.40;;
17648;SDS011;8943;51.110;-4.158;2023-11-21T13:26:11;2.63;;;1.90;;
17648;SDS011;8943;51.110;-4.158;2023-11-21T13:28:42;2.40;;;1.47;;
17648;SDS011;8943;51.110;-4.158;2023-11-21T13:31:14;1.37;;;0.60;;
17648;SDS011;8943;51.110;-4.158;2023-11-21T13:34:02;1.00;;;0.63;;
17648;SDS011;8943;51.110;-4.158;2023-11-21T13:36:34;4.27;;;2.63;;
17648;SDS011;8943;51.110;-4.158;2023-11-21T13:39:03;3.00;;;0.90;;
17648;SDS011;8943;51.110;-4.158;2023-11-21T13:41:36;2.73;;;1.10;;
17648;SDS011;8943;51.110;-4.158;2023-11-21T13:44:06;2.67;;;0.67;;
17648;SDS011;8943;51.110;-4.158;2023-11-21T13:46:43;1.80;;;1.43;;
17648;SDS011;8943;51.110;-4.158;2023-11-21T13:49:13;1.20;;;0.57;;
17648;SDS011;8943;51.110;-4.158;2023-11-21T13:51:46;0.83;;;0.50;;
17648;SDS011;8943;51.110;-4.158;2023-11-21T13:54:38;0.23;;;0.20;;
17648;SDS011;8943;51.110;-4.158;2023-11-21T13:57:07;2.83;;;0.90;;
17648;SDS011;8943;51.110;-4.158;2023-11-21T13:59:37;1.17;;;0.40;;
17648;SDS011;8943;51.110;-4.158;2023-11-21T14:02:05;1.90;;;0.60;;
17648;SDS011;8943;51.110;-4.158;2023-11-21T14:04:44;1.33;;;0.47;;
17648;SDS011;8943;51.110;-4.158;2023-11-21T14:07:23;6.43;;;3.63;;
17648;SDS011;8943;51.110;-4.158;2023-11-21T14:10:10;2.13;;;0.70;;
17648;SDS011;8943;51.110;-4.158;2023-11-21T14:12:50;1.50;;;0.63;;
17648;SDS011;8943;51.110;-4.158;2023-11-21T14:15:19;1.77;;;0.60;;
17648;SDS011;8943;51.110;-4.158;2023-11-21T14:17:47;3.03;;;0.50;;
17648;SDS011;8943;51.110;-4.158;2023-11-21T14:20:16;1.03;;;0.60;;
17648;SDS011;8943;51.110;-4.158;2023-11-21T14:22:47;1.60;;;0.70;;
17648;SDS011;8943;51.110;-4.158;2023-11-21T14:25:19;0.97;;;0.47;;
17648;SDS011;8943;51.110;-4.158;2023-11-21T14:28:04;1.40;;;0.47;;
17648;SDS011;8943;51.110;-4.158;2023-11-21T14:30:33;2.53;;;1.07;;
17648;SDS011;8943;51.110;-4.158;2023-11-21T14:33:02;8.47;;;0.70;;
17648;SDS011;8943;51.110;-4.158;2023-11-21T14:35:32;1.43;;;0.40;;
17648;SDS011;8943;51.110;-4.158;2023-11-21T14:38:01;1.60;;;0.67;;
17648;SDS011;8943;51.110;-4.158;2023-11-21T14:40:31;1.60;;;0.60;;
17648;SDS011;8943;51.110;-4.158;2023-11-21T14:43:08;1.63;;;0.63;;
17648;SDS011;8943;51.110;-4.158;2023-11-21T14:45:40;1.97;;;0.60;;
17648;SDS011;8943;51.110;-4.158;2023-11-21T14:48:11;3.13;;;0.57;;
17648;SDS011;8943;51.110;-4.158;2023-11-21T14:50:43;4.13;;;0.50;;
17648;SDS011;8943;51.110;-4.158;2023-11-21T14:53:37;3.10;;;0.70;;
17648;SDS011;8943;51.110;-4.158;2023-11-21T14:56:20;0.97;;;0.40;;
17648;SDS011;8943;51.110;-4.158;2023-11-21T14:58:55;1.30;;;0.40;;
17648;SDS011;8943;51.110;-4.158;2023-11-21T15:01:23;1.57;;;0.60;;
17648;SDS011;8943;51.110;-4.158;2023-11-21T15:04:13;1.17;;;0.40;;
17648;SDS011;8943;51.110;-4.158;2023-11-21T15:06:52;0.70;;;0.50;;
17648;SDS011;8943;51.110;-4.158;2023-11-21T15:09:24;0.90;;;0.57;;
17648;SDS011;8943;51.110;-4.158;2023-11-21T15:12:03;2.93;;;0.53;;
17648;SDS011;8943;51.110;-4.158;2023-11-21T15:14:53;2.70;;;0.57;;
17648;SDS011;8943;51.110;-4.158;2023-11-21T15:17:30;1.97;;;1.23;;
17648;SDS011;8943;51.110;-4.158;2023-11-21T15:20:10;2.43;;;0.43;;
17648;SDS011;8943;51.110;-4.158;2023-11-21T15:22:53;0.77;;;0.30;;
17648;SDS011;8943;51.110;-4.158;2023-11-21T15:25:24;2.03;;;0.50;;
17648;SDS011;8943;51.110;-4.158;2023-11-21T15:27:53;3.43;;;0.80;;
17648;SDS011;8943;51.110;-4.158;2023-11-21T15:30:28;3.30;;;1.30;;
17648;SDS011;8943;51.110;-4.158;2023-11-21T15:33:02;2.80;;;1.20;;
17648;SDS011;8943;51.110;-4.158;2023-11-21T15:35:31;3.60;;;1.10;;
17648;SDS011;8943;51.110;-4.158;2023-11-21T15:38:04;1.70;;;0.43;;
17648;SDS011;8943;51.110;-4.158;2023-11-21T15:40:35;1.47;;;0.57;;
17648;SDS011;8943;51.110;-4.158;2023-11-21T15:43:04;1.70;;;0.90;;
17648;SDS011;8943;51.110;-4.158;2023-11-21T15:45:36;3.27;;;0.80;;
17648;SDS011;8943;51.110;-4.158;2023-11-21T15:48:06;0.40;;;0.30;;
17648;SDS011;8943;51.110;-4.158;2023-11-21T15:50:36;4.60;;;0.73;;
17648;SDS011;8943;51.110;-4.158;2023-11-21T15:53:07;1.07;;;0.50;;
17648;SDS011;8943;51.110;-4.158;2023-11-21T15:55:40;2.97;;;0.40;;
17648;SDS011;8943;51.110;-4.158;2023-11-21T15:58:09;1.13;;;0.70;;
17648;SDS011;8943;51.110;-4.158;2023-11-21T16:00:40;1.83;;;0.50;;
17648;SDS011;8943;51.110;-4.158;2023-11-21T16:03:09;1.87;;;0.80;;
17648;SDS011;8943;51.110;-4.158;2023-11-21T16:05:41;1.37;;;0.70;;
17648;SDS011;8943;51.110;-4.158;2023-11-21T16:08:11;4.00;;;0.50;;
17648;SDS011;8943;51.110;-4.158;2023-11-21T16:10:39;1.03;;;0.50;;
17648;SDS011;8943;51.110;-4.158;2023-11-21T16:13:11;2.20;;;0.80;;
17648;SDS011;8943;51.110;-4.158;2023-11-21T16:15:43;2.70;;;0.70;;
17648;SDS011;8943;51.110;-4.158;2023-11-21T16:18:22;3.13;;;0.80;;
17648;SDS011;8943;51.110;-4.158;2023-11-21T16:20:59;3.10;;;0.63;;
17648;SDS011;8943;51.110;-4.158;2023-11-21T16:23:39;1.80;;;0.60;;
17648;SDS011;8943;51.110;-4.158;2023-11-21T16:26:07;1.90;;;0.60;;
17648;SDS011;8943;51.110;-4.158;2023-11-21T16:28:41;12.63;;;7.83;;
17648;SDS011;8943;51.110;-4.158;2023-11-21T16:31:13;11.70;;;7.80;;
17648;SDS011;8943;51.110;-4.158;2023-11-21T16:33:49;5.00;;;0.97;;
17648;SDS011;8943;51.110;-4.158;2023-11-21T16:36:18;1.60;;;0.70;;
17648;SDS011;8943;51.110;-4.158;2023-11-21T16:38:47;3.83;;;0.80;;
17648;SDS011;8943;51.110;-4.158;2023-11-21T16:41:17;2.67;;;1.37;;
17648;SDS011;8943;51.110;-4.158;2023-11-21T16:43:47;1.47;;;1.17;;
17648;SDS011;8943;51.110;-4.158;2023-11-21T16:46:20;1.57;;;0.77;;
17648;SDS011;8943;51.110;-4.158;2023-11-21T16:48:51;4.30;;;1.73;;
17648;SDS011;8943;51.110;-4.158;2023-11-21T16:51:21;2.37;;;1.53;;
17648;SDS011;8943;51.110;-4.158;2023-11-21T16:53:49;3.30;;;1.20;;
17648;SDS011;8943;51.110;-4.158;2023-11-21T16:58:53;3.70;;;1.40;;
17648;SDS011;8943;51.110;-4.158;2023-11-21T17:01:25;1.63;;;0.90;;
17648;SDS011;8943;51.110;-4.158;2023-11-21T17:03:56;2.70;;;1.20;;
17648;SDS011;8943;51.110;-4.158;2023-11-21T17:06:28;2.33;;;0.70;;
17648;SDS011;8943;51.110;-4.158;2023-11-21T17:08:58;4.47;;;1.17;;
17648;SDS011;8943;51.110;-4.158;2023-11-21T17:11:31;3.63;;;1.10;;
17648;SDS011;8943;51.110;-4.158;2023-11-21T17:14:00;3.00;;;0.93;;
17648;SDS011;8943;51.110;-4.158;2023-11-21T17:16:41;5.53;;;2.37;;
17648;SDS011;8943;51.110;-4.158;2023-11-21T17:19:14;1.63;;;0.70;;
17648;SDS011;8943;51.110;-4.158;2023-11-21T17:21:45;3.30;;;1.47;;
17648;SDS011;8943;51.110;-4.158;2023-11-21T17:24:20;2.47;;;0.80;;
17648;SDS011;8943;51.110;-4.158;2023-11-21T17:26:49;2.73;;;1.00;;
17648;SDS011;8943;51.110;-4.158;2023-11-21T17:29:18;2.97;;;1.10;;
17648;SDS011;8943;51.110;-4.158;2023-11-21T17:31:49;3.97;;;1.23;;
17648;SDS011;8943;51.110;-4.158;2023-11-21T17:34:18;1.80;;;0.73;;
17648;SDS011;8943;51.110;-4.158;2023-11-21T17:37:17;3.60;;;1.10;;
17648;SDS011;8943;51.110;-4.158;2023-11-21T17:39:48;1.53;;;0.77;;
17648;SDS011;8943;51.110;-4.158;2023-11-21T17:42:21;6.07;;;1.80;;
17648;SDS011;8943;51.110;-4.158;2023-11-21T17:48:13;5.83;;;2.87;;
17648;SDS011;8943;51.110;-4.158;2023-11-21T17:50:43;7.10;;;3.20;;
17648;SDS011;8943;51.110;-4.158;2023-11-21T17:53:26;2.00;;;0.87;;
17648;SDS011;8943;51.110;-4.158;2023-11-21T17:55:55;4.27;;;0.73;;
17648;SDS011;8943;51.110;-4.158;2023-11-21T17:58:25;1.63;;;0.73;;
17648;SDS011;8943;51.110;-4.158;2023-11-21T18:00:57;1.20;;;0.70;;
17648;SDS011;8943;51.110;-4.158;2023-11-21T18:03:29;2.57;;;0.70;;
17648;SDS011;8943;51.110;-4.158;2023-11-21T18:06:00;2.00;;;0.60;;
17648;SDS011;8943;51.110;-4.158;2023-11-21T18:08:36;1.30;;;0.43;;
17648;SDS011;8943;51.110;-4.158;2023-11-21T18:11:27;3.57;;;0.73;;
17648;SDS011;8943;51.110;-4.158;2023-11-21T18:13:57;2.53;;;1.10;;
17648;SDS011;8943;51.110;-4.158;2023-11-21T18:16:47;3.17;;;1.83;;
17648;SDS011;8943;51.110;-4.158;2023-11-21T18:19:30;1.83;;;1.30;;
17648;SDS011;8943;51.110;-4.158;2023-11-21T18:22:02;1.93;;;1.00;;
17648;SDS011;8943;51.110;-4.158;2023-11-21T18:24:41;1.17;;;0.70;;
17648;SDS011;8943;51.110;-4.158;2023-11-21T18:27:13;4.53;;;0.80;;
17648;SDS011;8943;51.110;-4.158;2023-11-21T18:29:47;1.90;;;0.93;;
17648;SDS011;8943;51.110;-4.158;2023-11-21T18:32:33;2.57;;;0.97;;
17648;SDS011;8943;51.110;-4.158;2023-11-21T18:35:23;2.70;;;1.40;;
17648;SDS011;8943;51.110;-4.158;2023-11-21T18:37:56;3.87;;;1.60;;
17648;SDS011;8943;51.110;-4.158;2023-11-21T18:40:37;4.03;;;1.27;;
17648;SDS011;8943;51.110;-4.158;2023-11-21T18:43:07;1.93;;;1.20;;
17648;SDS011;8943;51.110;-4.158;2023-11-21T18:45:54;1.20;;;0.90;;
17648;SDS011;8943;51.110;-4.158;2023-11-21T18:48:48;1.40;;;0.83;;
17648;SDS011;8943;51.110;-4.158;2023-11-21T18:51:22;2.20;;;1.07;;
17648;SDS011;8943;51.110;-4.158;2023-11-21T18:53:52;2.37;;;0.90;;
17648;SDS011;8943;51.110;-4.158;2023-11-21T18:56:27;1.50;;;0.57;;
17648;SDS011;8943;51.110;-4.158;2023-11-21T18:59:01;2.60;;;1.30;;
17648;SDS011;8943;51.110;-4.158;2023-11-21T19:01:56;1.07;;;0.73;;
17648;SDS011;8943;51.110;-4.158;2023-11-21T19:04:34;1.00;;;0.57;;
17648;SDS011;8943;51.110;-4.158;2023-11-21T19:07:31;3.77;;;1.20;;
17648;SDS011;8943;51.110;-4.158;2023-11-21T19:10:10;5.93;;;2.20;;
17648;SDS011;8943;51.110;-4.158;2023-11-21T19:12:58;2.23;;;1.13;;
17648;SDS011;8943;51.110;-4.158;2023-11-21T19:16:26;4.90;;;2.30;;
17648;SDS011;8943;51.110;-4.158;2023-11-21T19:19:02;4.23;;;2.93;;
17648;SDS011;8943;51.110;-4.158;2023-11-21T19:21:46;5.63;;;3.77;;
17648;SDS011;8943;51.110;-4.158;2023-11-21T19:38:34;4.83;;;3.33;;
17648;SDS011;8943;51.110;-4.158;2023-11-21T19:41:38;3.73;;;1.20;;
17648;SDS011;8943;51.110;-4.158;2023-11-21T19:44:33;2.67;;;1.40;;
17648;SDS011;8943;51.110;-4.158;2023-11-21T19:47:16;1.50;;;0.80;;
17648;SDS011;8943;51.110;-4.158;2023-11-21T19:50:12;3.63;;;2.33;;
17648;SDS011;8943;51.110;-4.158;2023-11-21T19:53:24;4.53;;;2.67;;
17648;SDS011;8943;51.110;-4.158;2023-11-21T19:55:58;6.47;;;3.70;;
17648;SDS011;8943;51.110;-4.158;2023-11-21T19:58:54;4.33;;;3.10;;
17648;SDS011;8943;51.110;-4.158;2023-11-21T20:01:40;7.60;;;4.80;;
17648;SDS011;8943;51.110;-4.158;2023-11-21T20:04:47;6.10;;;4.70;;
17648;SDS011;8943;51.110;-4.158;2023-11-21T21:43:52;6.23;;;2.20;;
17648;SDS011;8943;51.110;-4.158;2023-11-21T21:47:53;3.27;;;1.77;;
17648;SDS011;8943;51.110;-4.158;2023-11-21T21:51:05;4.20;;;1.70;;
17648;SDS011;8943;51.110;-4.158;2023-11-21T22:02:12;3.37;;;1.63;;
17648;SDS011;8943;51.110;-4.158;2023-11-21T22:05:33;3.33;;;1.90;;
17648;SDS011;8943;51.110;-4.158;2023-11-21T22:49:41;4.60;;;2.50;;
17648;SDS011;8943;51.110;-4.158;2023-11-21T22:52:16;6.73;;;2.40;;
17648;SDS011;8943;51.110;-4.158;2023-11-21T22:57:56;3.90;;;2.33;;
17648;SDS011;8943;51.110;-4.158;2023-11-21T23:00:57;6.10;;;2.87;;
17648;SDS011;8943;51.110;-4.158;2023-11-21T23:10:44;5.60;;;2.80;;
17648;SDS011;8943;51.110;-4.158;2023-11-21T23:13:55;8.40;;;3.10;;
17648;SDS011;8943;51.110;-4.158;2023-11-21T23:17:14;5.07;;;2.60;;
17648;SDS011;8943;51.110;-4.158;2023-11-21T23:40:23;3.93;;;2.43;;
17648;SDS011;8943;51.110;-4.158;2023-11-21T23:42:56;4.97;;;2.60;;
17648;SDS011;8943;51.110;-4.158;2023-11-21T23:45:31;4.13;;;2.63;;
17648;SDS011;8943;51.110;-4.158;2023-11-21T23:48:21;3.27;;;2.57;;
17648;SDS011;8943;51.110;-4.158;2023-11-21T23:51:22;3.93;;;2.47;;